Waterman, Illinois
Current Conditions -  °F | °C
As of 10:55 PM on Friday 19 Dec 2014 (Local Time) from KDKB Reporting Station
Haze Haze  
Wind Chill: 22°   Ceiling: Unl
Heat Index: 22°   Visibility: 5mi
Dew Point: 20°   Wind: 3mph
Humidity: 92%   Direction: 80°E
Pressure: 30.26"   Gusts: NA
Location:  41.77°N, 88.77°W
Report Text: KDKB 200455Z AUTO 08003KT 5SM BR CLR M06/M07 A3026 RMK AO2 T10561067
Loading
Personal Weather Stations






























Interactive Weather Map New forecast layout! Learn more

10-Day Weather Forecast

Advertisements
Track Severe Weather on mobile